Nearby METAR Reports

This page may be slow to load as it queries the National Weather Service for data.

KBIS - Bismarck, North Dakota, USA
Distance from station: S 10mi, 15km
Updated: Tue, 12-Dec-2017 10:52am CST
Clear
Clear
 Wind from W
Wind: W 9 mph , 15 km/h
Temperature: 37°F , 3°C
Wind Chill: 30°F , -1°C
Dew Point: 27°F , -3°C
Humidity: 65%
Barometer: 30.01 inHg , 1016.3 hPa
Clouds: Clear
Visibility: 10 miles , 16 km
2017/12/12 16:52 KBIS 121652Z 27008KT 10SM CLR 03/M03 A3001 RMK AO2 SLP184 T00281028
KDIK - Dickinson, North Dakota, USA
Distance from station: W 95mi, 154km
Updated: Tue, 12-Dec-2017 10:56am CST
Clear
Clear
 Wind from W
Wind: W 15 mph , 24 km/h
Temperature: 43°F , 6°C
Wind Chill: 36°F , 2°C
Dew Point: 25°F , -4°C
Humidity: 49%
Barometer: 29.99 inHg , 1015.6 hPa
Clouds: Clear
Visibility: 10 miles , 16 km
2017/12/12 16:56 KDIK 121656Z AUTO 28013KT 10SM CLR 06/M04 A2999 RMK AO2 SLP177 T00561039
 
KISN - Williston, North Dakota, USA
Distance from station: NNW 2mi, 2km
Updated: Tue, 12-Dec-2017 10:54am CST
Clear
Clear
 Wind from SW
Wind: SW 6 mph , 9 km/h
Temperature: 34°F , 1°C
Wind Chill: 29°F , -2°C
Dew Point: 27°F , -3°C
Humidity: 75%
Barometer: 29.97 inHg , 1014.9 hPa
Clouds: Clear
Visibility: 10 miles , 16 km
2017/12/12 16:54 KISN 121654Z 22005KT 10SM CLR 01/M03 A2997
KFAR - Fargo, North Dakota, USA
Distance from station: NNW 4mi, 7km
Updated: Tue, 12-Dec-2017 10:53am CST
Mostly cloudy
Mostly cloudy
 Wind from SSW
Wind: SSW 12 mph , 19 km/h
Temperature: 28°F , -2°C
Wind Chill: 18°F , -8°C
Dew Point: 25°F , -4°C
Humidity: 86%
Barometer: 29.99 inHg , 1015.6 hPa
Clouds: Mostly cloudy
Visibility: 10 miles , 16 km
Cloud details: Mostly cloudy 9000 ft
2017/12/12 16:53 KFAR 121653Z 20010KT 10SM BKN090 M02/M04 A2999 RMK AO2 SLP174 T10221044
 
KGFK - Grand Forks, North Dakota, USA
Distance from station: NNW 76mi, 123km
Updated: Tue, 12-Dec-2017 10:53am CST
Overcast
Overcast
 Wind from SSE
Wind: SSE 12 mph , 19 km/h
Temperature: 25°F , -4°C
Wind Chill: 14°F , -10°C
Dew Point: 23°F , -5°C
Humidity: 93%
Barometer: 29.93 inHg , 1013.5 hPa
Clouds: Overcast
Visibility: 10 miles , 16 km
Cloud details: Mostly cloudy 9000 ft
Overcast 11000 ft
2017/12/12 16:53 KGFK 121653Z 16010KT 10SM BKN090 OVC110 M04/M05 A2993 RMK AO2 SLP154 T10391050
KMOT - Minot, North Dakota, USA
Distance from station: E 109mi, 175km
Updated: Tue, 12-Dec-2017 10:54am CST
Clear
Clear
 Wind from WSW
Wind: WSW 17 mph , 28 km/h
Temperature: 39°F , 4°C
Wind Chill: 30°F , -1°C
Dew Point: 25°F , -4°C
Humidity: 56%
Barometer: 29.91 inHg , 1012.9 hPa
Clouds: Clear
Visibility: 10 miles , 16 km
2017/12/12 16:54 KMOT 121654Z 24015KT 10SM CLR 04/M04 A2991 RMK AO2 SLP148 T00391044